createdAt,value
2019-03-04T00:14:44.289Z,93523.89
2019-03-04T00:30:17.342Z,93512.21
2019-03-04T00:45:50.478Z,93501.36
2019-03-04T01:01:23.235Z,93503.39
2019-03-04T01:16:56.466Z,93489.73
2019-03-04T01:32:29.866Z,93483.70
2019-03-04T01:48:03.110Z,93479.20
2019-03-04T02:03:36.420Z,93481.24
2019-03-04T02:19:09.602Z,93479.77
2019-03-04T02:34:42.924Z,93480.99
2019-03-04T02:50:16.416Z,93487.30
2019-03-04T03:05:49.382Z,93467.59
2019-03-04T03:21:22.523Z,93465.50
2019-03-04T03:36:55.738Z,93473.03
2019-03-04T03:52:28.885Z,93451.70
2019-03-04T04:08:01.992Z,93455.38
2019-03-04T04:23:35.187Z,93455.37
2019-03-04T04:39:08.287Z,93449.90
2019-03-04T04:54:41.342Z,93440.05
2019-03-04T05:10:14.585Z,93438.42
2019-03-04T05:25:47.677Z,93439.16
2019-03-04T05:41:20.548Z,93453.42
2019-03-04T05:56:53.728Z,93463.67
2019-03-04T06:12:27.027Z,93475.38
2019-03-04T06:28:00.234Z,93490.72
2019-03-04T06:43:33.509Z,93502.21
2019-03-04T06:59:19.527Z,93500.67
2019-03-04T07:14:52.345Z,93517.66
2019-03-04T07:30:27.560Z,93507.92
2019-03-04T07:46:00.380Z,93481.28
2019-03-04T08:01:33.722Z,93484.54
2019-03-04T08:17:06.657Z,93482.55
2019-03-04T08:32:40.073Z,93470.53
2019-03-04T08:48:13.179Z,93456.83
2019-03-04T09:03:46.349Z,93450.50
2019-03-04T09:19:19.361Z,93445.31
2019-03-04T09:34:52.144Z,93419.95
2019-03-04T09:50:30.192Z,93411.85
2019-03-04T10:06:10.494Z,93381.35
2019-03-04T10:21:56.717Z,93371.97
2019-03-04T10:53:40.457Z,93303.93
2019-03-04T11:09:13.481Z,93292.80
2019-03-04T11:24:46.323Z,93263.19
2019-03-04T11:40:22.529Z,93231.73
2019-03-04T11:55:55.433Z,93202.87
2019-03-04T12:11:37.779Z,93165.66
2019-03-04T12:27:03.657Z,93157.57
2019-03-04T12:42:37.035Z,93142.26
2019-03-04T12:58:10.108Z,93116.22
2019-03-04T13:13:43.094Z,93093.73
2019-03-04T13:29:16.144Z,93075.91
2019-03-04T13:44:48.997Z,93058.39
2019-03-04T14:00:25.167Z,93052.88
2019-03-04T14:16:02.104Z,93029.05
2019-03-04T14:31:35.198Z,93007.68
2019-03-04T14:47:08.177Z,92998.00
2019-03-04T15:02:41.228Z,92991.91
2019-03-04T15:18:14.471Z,92986.70
2019-03-04T15:33:47.670Z,92968.55
2019-03-04T15:49:20.887Z,92955.72
2019-03-04T16:04:53.906Z,92950.41
2019-03-04T16:20:29.912Z,92959.83
2019-03-04T16:36:02.896Z,92958.39
2019-03-04T16:51:36.346Z,92959.73
2019-03-04T17:07:09.391Z,92951.92
2019-03-04T17:22:42.373Z,92941.77
2019-03-04T17:38:15.513Z,92961.73
2019-03-04T17:53:48.554Z,92962.64
2019-03-04T18:09:21.509Z,92939.20
2019-03-04T18:24:54.674Z,92951.77
2019-03-04T18:40:37.958Z,92944.83
2019-03-04T18:56:11.169Z,92991.47
2019-03-04T19:11:44.091Z,92982.94
2019-03-04T19:27:17.153Z,92987.45
2019-03-04T19:42:50.232Z,92985.47
2019-03-04T19:58:23.118Z,92968.64
2019-03-04T20:13:57.329Z,92986.77
2019-03-04T20:29:30.259Z,92974.06
2019-03-04T20:45:03.277Z,92976.76
2019-03-04T21:00:42.290Z,92971.02
2019-03-04T21:16:15.461Z,92958.82
2019-03-04T21:31:54.927Z,92949.50
2019-03-04T21:47:38.037Z,92980.14
2019-03-04T22:03:18.185Z,92974.13
2019-03-04T22:18:51.163Z,92940.99
2019-03-04T22:34:24.138Z,92956.33
2019-03-04T22:49:57.582Z,92984.27
2019-03-04T23:05:32.733Z,92983.01
2019-03-04T23:21:06.588Z,92973.42
2019-03-04T23:36:40.165Z,92977.31
2019-03-04T23:52:15.073Z,93015.73
